EHMA 200125Z AUTO 28009KT 9999 FEW004 SCT005 12/11 Q1021 EHMA 200055Z AUTO 27008KT 9999 FEW004 12/12 Q1021 EHMA 200025Z AUTO 28007KT 9999 FEW003/// 12/11 Q1021 EHMA 192355Z AUTO 29007KT 9999 FEW003 SCT005 12/11 Q1021 EHMA 192325Z AUTO 28011KT 9999 BKN004 12/11 Q1021 EHMA 192255Z AUTO 28010KT 9999 BKN004 OVC005 12/11 Q1020 EHMA 192225Z AUTO 28015KT 9999 SCT004 BKN005 12/11 Q1020 EHMA 192155Z AUTO 30018KT 9999 FEW006 13/11 Q1020 EHMA 192125Z AUTO 29016KT 9999 NSC 13/11 Q1020 EHMA 192055Z AUTO 29015KT 9999 NSC 13/11 Q1019 EHMA 192025Z AUTO 29012KT 9999 FEW002 SCT004 13/12 Q1019 EHMA 191955Z AUTO 29014KT 9999 FEW002 BKN003 OVC004 13/12 Q1019 EHMA 191925Z AUTO 29014KT 8000 BKN002 13/12 Q1019 EHMA 191855Z AUTO 29014KT 9000 FEW002 13/12 Q1018 EHMA 191825Z AUTO 29015KT 9999 FEW003 SCT016 BKN022 13/12 Q1018 EHMA 191755Z AUTO 28013KT 9999 FEW004 SCT012 BKN015 14/13 Q1017 EHMA 191725Z AUTO 29015KT 9999 FEW003 SCT012 BKN046 15/13 Q1017 EHMA 191655Z AUTO 29017KT 7000 FEW002 SCT009 BKN016 15/14 Q1017 EHMA 191625Z AUTO 25008KT 9999 FEW008 17/16 Q1017 EHMA 191555Z AUTO 19005KT 160V220 9999 FEW007 16/16 Q1016 EHMA 191525Z AUTO 17005KT 4300 BR FEW001 SCT008 17/17 Q1016 EHMA 191455Z AUTO 10007KT 2400 BR FEW002 16/16 Q1016 EHMA 191425Z AUTO 11010KT 3200 BR FEW001 SCT005 16/16 Q1016 EHMA 191355Z AUTO 24005KT 210V270 4200 -RA FEW000 SCT001 BKN005 BKN015CB 15/15 Q1017 EHMA 191325Z AUTO 27008KT 4000 -SHRA SCT000 BKN001 BKN006 BKN015CB 16/15 Q1018 RETSRA EHMA 191255Z AUTO 28012KT 2900 TSRA FEW000 SCT005 BKN015CB 17/16 Q1018 EHMA 191225Z AUTO 22012KT 5000 +DZRA FEW033/// 19/17 Q1018 EHMA 191155Z AUTO 16008KT 9999 NSC 19/16 Q1016 EHMA 191125Z AUTO 12014KT 9999 NSC 18/16 Q1016 EHMA 191055Z AUTO 10022KT 9999 NSC 17/15 Q1015 EHMA 191025Z AUTO 09015KT 9999 FEW005 16/15 Q1016 EHMA 190955Z AUTO 09007KT 340V130 8000 FEW002 SCT015CB 15/15 Q1017 REDZ EHMA 190925Z AUTO 13004KT 080V170 9999 FEW015CB 15/15 Q1018 EHMA 190855Z AUTO 10006KT 010V150 8000 NSC 15/15 Q1017 EHMA 190825Z AUTO 09009KT 040V130 7000 NSC 14/14 Q1017 EHMA 190755Z AUTO 06012KT 040V110 7000 NSC 15/14 Q1017 REDZ EHMA 190725Z AUTO 01017KT 3600 BR FEW002 FEW015CB 14/13 Q1017 EHMA 190655Z AUTO 34018KT 2600 -SHRA FEW001 BKN015CB 14/13 Q1017 EHMA 190625Z AUTO 31016KT 4000 -RA FEW015CB 15/14 Q1018 EHMA 190555Z AUTO 28013G23KT 1600 -SHRA FEW010 SCT015CB 16/14 Q1017 RETS EHMA 190525Z AUTO 22013KT 160V250 1600 TSRA FEW010 SCT015CB 16/14 Q1018 EHMA 190455Z AUTO 11014KT 9000 TS NSC 16/14 Q1016 EHMA 190425Z AUTO 11015KT 8000 NSC 16/14 Q1016 RETS EHMA 190355Z AUTO 11014KT 9000 NSC 16/14 Q1016 EHMA 190325Z AUTO 10014KT 5000 BR FEW015CB 15/15 Q1017 EHMA 190255Z AUTO 10012KT 7000 NSC 15/14 Q1017 EHMA 190225Z AUTO 09011KT 9999 NSC 15/14 Q1017 EHMA 190155Z AUTO 09008KT 9999 NSC 14/13 Q1017 EHMA 190125Z AUTO 10009KT 9999 NSC 14/13 Q1018 EHMA 190055Z AUTO 11006KT 050V130 9999 NSC 14/13 Q1018 EHMA 190025Z AUTO VRB02KT 9999 NSC 14/13 Q1018 EHMA 182355Z AUTO 09003KT 060V120 9999 NSC 13/12 Q1019 EHMA 182325Z AUTO 11004KT 9999 NSC 13/13 Q1019 EHMA 182255Z AUTO 08003KT 9999 NSC 13/12 Q1019 EHMA 182225Z AUTO 08003KT 9999 NSC 13/12 Q1019 EHMA 182155Z AUTO 09002KT 9999 NSC 13/13 Q1020 EHMA 182125Z AUTO 07004KT 9000 NSC 13/12 Q1020 EHMA 182055Z AUTO 09004KT 9999 NSC 13/12 Q1020 EHMA 182025Z AUTO 07004KT 9999 NSC 13/12 Q1020 EHMA 181955Z AUTO 36002KT 9999 NSC 13/12 Q1020 EHMA 181925Z AUTO 36004KT 9999 NSC 13/12 Q1020 EHMA 181855Z AUTO 36004KT 9999 NSC 13/12 Q1020 EHMA 181825Z AUTO 36005KT 9999 NSC 13/12 Q1020 EHMA 181755Z AUTO 32006KT 9999 NSC 13/12 Q1021 EHMA 181725Z AUTO 31008KT 9999 NSC 13/12 Q1021 EHMA 181655Z AUTO 32008KT 9999 NSC 14/12 Q1021 EHMA 181625Z AUTO 32009KT 9999 NSC 14/12 Q1021 EHMA 181555Z AUTO 32010KT 9999 NSC 13/12 Q1021 EHMA 181525Z AUTO 31012KT 9999 NSC 13/12 Q1021 EHMA 181455Z AUTO 32012KT 9999 NSC 13/12 Q1021 EHMA 181425Z AUTO 31012KT 9999 NSC 14/12 Q1021 EHMA 181355Z AUTO 31012KT 9999 NSC 14/12 Q1021

METAR Messwerte "AWG-1 SEA" EHMA

Zurück zur Übersicht

Ortsname
Ländercode / m ü. NN
Zeit Temperatur Taupunkt Rel.
Luftfeuchte
Luftdruck:
Altimeter
NN
Station
Wind in Beaufort
(Knoten)
Sichtweite
(Meter)
Wolken
(Meter über Grund)
Wettererscheinung
AWG-1 SEA
NL 27
Fr 20.05. 03:25121194 %1021
1021
1018
W 3 (9)>= 10000Wolkig (150)
Leicht bewölkt (120)
 
AWG-1 SEA
NL 27
Fr 20.05. 02:551212100 %1021
1021
1018
W 3 (8)>= 10000Leicht bewölkt (120) 
AWG-1 SEA
NL 27
Fr 20.05. 02:25121194 %1021
1021
1018
W 3 (7)>= 10000Leicht bewölkt (91) 
AWG-1 SEA
NL 27
Fr 20.05. 01:55121194 %1021
1021
1018
WNW 3 (7)>= 10000Wolkig (150)
Leicht bewölkt (91)
 
AWG-1 SEA
NL 27
Fr 20.05. 01:25121194 %1021
1021
1018
W 4 (11)>= 10000Stark bewölkt (120) 
AWG-1 SEA
NL 27
Fr 20.05. 00:55121194 %1020
1020
1017
W 3 (10)>= 10000Bedeckt (150)
Stark bewölkt (120)
 
AWG-1 SEA
NL 27
Fr 20.05. 00:25121194 %1020
1020
1017
W 4 (15)>= 10000Stark bewölkt (150)
Wolkig (120)
 
AWG-1 SEA
NL 27
Do 19.05. 23:55131188 %1020
1020
1017
WNW 5 (18)>= 10000Leicht bewölkt (180) 
AWG-1 SEA
NL 27
Do 19.05. 23:25131188 %1020
1020
1017
WNW 5 (16)>= 10000Nicht signifikant 
AWG-1 SEA
NL 27
Do 19.05. 22:55131188 %1019
1019
1016
WNW 4 (15)>= 10000Nicht signifikant 
AWG-1 SEA
NL 27
Do 19.05. 22:25131294 %1019
1019
1016
WNW 4 (12)>= 10000Wolkig (120)
Leicht bewölkt (61)
 
AWG-1 SEA
NL 27
Do 19.05. 21:55131294 %1019
1019
1016
WNW 4 (14)>= 10000Bedeckt (120)
Stark bewölkt (91)
Leicht bewölkt (61)
 
AWG-1 SEA
NL 27
Do 19.05. 21:25131294 %1019
1019
1016
WNW 4 (14)8000Stark bewölkt (61) 
AWG-1 SEA
NL 27
Do 19.05. 20:55131294 %1018
1018
1015
WNW 4 (14)9000Leicht bewölkt (61) 
AWG-1 SEA
NL 27
Do 19.05. 20:25131294 %1018
1018
1015
WNW 4 (15)>= 10000Stark bewölkt (670)
Wolkig (490)
Leicht bewölkt (91)
 
AWG-1 SEA
NL 27
Do 19.05. 19:55141394 %1017
1017
1014
W 4 (13)>= 10000Stark bewölkt (460)
Wolkig (370)
Leicht bewölkt (120)
 
AWG-1 SEA
NL 27
Do 19.05. 19:25151388 %1017
1017
1014
WNW 4 (15)>= 10000Stark bewölkt (1400)
Wolkig (370)
Leicht bewölkt (91)
 
AWG-1 SEA
NL 27
Do 19.05. 18:55151494 %1017
1017
1014
WNW 5 (17)7000Stark bewölkt (490)
Wolkig (270)
Leicht bewölkt (61)
 
AWG-1 SEA
NL 27
Do 19.05. 18:25171694 %1017
1017
1014
WSW 3 (8)>= 10000Leicht bewölkt (240) 
AWG-1 SEA
NL 27
Do 19.05. 17:551616100 %1016
1016
1013
S 2 (5)
SSO - SW
>= 10000Leicht bewölkt (210) 
AWG-1 SEA
NL 27
Do 19.05. 17:251717100 %1016
1016
1013
S 2 (5)4300Wolkig (240)
Leicht bewölkt (30)
Nebeldunst
AWG-1 SEA
NL 27
Do 19.05. 16:551616100 %1016
1016
1013
O 3 (7)2400Leicht bewölkt (61)Nebeldunst
AWG-1 SEA
NL 27
Do 19.05. 16:251616100 %1016
1016
1013
OSO 3 (10)3200Wolkig (150)
Leicht bewölkt (30)
Nebeldunst
AWG-1 SEA
NL 27
Do 19.05. 15:551515100 %1017
1017
1014
WSW 2 (5)
SSW - W
4200Stark bewölkt Cb (460)
Stark bewölkt (150)
Wolkig (30)
Leicht bewölkt (0)
Regen (schwach)
AWG-1 SEA
NL 27
Do 19.05. 15:25161594 %1018
1018
1015
W 3 (8)4000Stark bewölkt Cb (460)
Stark bewölkt (180)
Stark bewölkt (30)
Wolkig (0)
Regen-Schauer (schwach)
AWG-1 SEA
NL 27
Do 19.05. 14:55171694 %1018
1018
1015
W 4 (12)2900Stark bewölkt Cb (460)
Wolkig (150)
Leicht bewölkt (0)
Gewitter mit Regen
AWG-1 SEA
NL 27
Do 19.05. 14:25191788 %1018
1018
1015
SW 4 (12)5000Leicht bewölkt (1000)Nieselregen/Regen (stark)
AWG-1 SEA
NL 27
Do 19.05. 13:55191683 %1016
1016
1013
SSO 3 (8)>= 10000Nicht signifikant 
AWG-1 SEA
NL 27
Do 19.05. 13:25181688 %1016
1016
1013
OSO 4 (14)>= 10000Nicht signifikant 
AWG-1 SEA
NL 27
Do 19.05. 12:55171588 %1015
1015
1012
O 6 (22)>= 10000Nicht signifikant 
AWG-1 SEA
NL 27
Do 19.05. 12:25161594 %1016
1016
1013
O 4 (15)>= 10000Leicht bewölkt (150) 
AWG-1 SEA
NL 27
Do 19.05. 11:551515100 %1017
1017
1014
O 3 (7)
NNW - SO
8000Wolkig Cb (460)
Leicht bewölkt (61)
 
AWG-1 SEA
NL 27
Do 19.05. 11:251515100 %1018
1018
1015
SO 2 (4)
O - S
>= 10000Leicht bewölkt Cb (460) 
AWG-1 SEA
NL 27
Do 19.05. 10:551515100 %1017
1017
1014
O 2 (6)
N - SSO
8000Nicht signifikant 
AWG-1 SEA
NL 27
Do 19.05. 10:251414100 %1017
1017
1014
O 3 (9)
NO - SO
7000Nicht signifikant 
AWG-1 SEA
NL 27
Do 19.05. 09:55151494 %1017
1017
1014
ONO 4 (12)
NO - OSO
7000Nicht signifikant 
AWG-1 SEA
NL 27
Do 19.05. 09:25141394 %1017
1017
1014
N 5 (17)3600Leicht bewölkt Cb (460)
Leicht bewölkt (61)
Nebeldunst
AWG-1 SEA
NL 27
Do 19.05. 08:55141394 %1017
1017
1014
NNW 5 (18)2600Stark bewölkt Cb (460)
Leicht bewölkt (30)
Regen-Schauer (schwach)
AWG-1 SEA
NL 27
Do 19.05. 08:25151494 %1018
1018
1015
NW 5 (16)4000Leicht bewölkt Cb (460)Regen (schwach)
AWG-1 SEA
NL 27
Do 19.05. 07:55161488 %1017
1017
1014
W 4 (13) - 6 (23)1600Wolkig Cb (460)
Leicht bewölkt (300)
Regen-Schauer (schwach)
AWG-1 SEA
NL 27
Do 19.05. 07:25161488 %1018
1018
1015
SW 4 (13)
SSO - WSW
1600Wolkig Cb (460)
Leicht bewölkt (300)
Gewitter mit Regen
AWG-1 SEA
NL 27
Do 19.05. 06:55161488 %1016
1016
1013
OSO 4 (14)9000Nicht signifikant 
AWG-1 SEA
NL 27
Do 19.05. 06:25161488 %1016
1016
1013
OSO 4 (15)8000Nicht signifikant 
AWG-1 SEA
NL 27
Do 19.05. 05:55161488 %1016
1016
1013
OSO 4 (14)9000Nicht signifikant 
AWG-1 SEA
NL 27
Do 19.05. 05:251515100 %1017
1017
1014
O 4 (14)5000Leicht bewölkt Cb (460)Nebeldunst
AWG-1 SEA
NL 27
Do 19.05. 04:55151494 %1017
1017
1014
O 4 (12)7000Nicht signifikant 
AWG-1 SEA
NL 27
Do 19.05. 04:25151494 %1017
1017
1014
O 4 (11)>= 10000Nicht signifikant 
AWG-1 SEA
NL 27
Do 19.05. 03:55141394 %1017
1017
1014
O 3 (8)>= 10000Nicht signifikant 
AWG-1 SEA
NL 27
Do 19.05. 03:25141394 %1018
1018
1015
O 3 (9)>= 10000Nicht signifikant 
AWG-1 SEA
NL 27
Do 19.05. 02:55141394 %1018
1018
1015
OSO 2 (6)
NO - SO
>= 10000Nicht signifikant 
AWG-1 SEA
NL 27
Do 19.05. 02:25141394 %1018
1018
1015
Uml 1 (2)>= 10000Nicht signifikant 
AWG-1 SEA
NL 27
Do 19.05. 01:55131294 %1019
1019
1016
O 2 (3)
ONO - OSO
>= 10000Nicht signifikant 
AWG-1 SEA
NL 27
Do 19.05. 01:251313100 %1019
1019
1016
OSO 2 (4)>= 10000Nicht signifikant 
AWG-1 SEA
NL 27
Do 19.05. 00:55131294 %1019
1019
1016
O 2 (3)>= 10000Nicht signifikant 
AWG-1 SEA
NL 27
Do 19.05. 00:25131294 %1019
1019
1016
O 2 (3)>= 10000Nicht signifikant 
AWG-1 SEA
NL 27
Mi 18.05. 23:551313100 %1020
1020
1017
O 1 (2)>= 10000Nicht signifikant 
AWG-1 SEA
NL 27
Mi 18.05. 23:25131294 %1020
1020
1017
ONO 2 (4)9000Nicht signifikant 
AWG-1 SEA
NL 27
Mi 18.05. 22:55131294 %1020
1020
1017
O 2 (4)>= 10000Nicht signifikant 
AWG-1 SEA
NL 27
Mi 18.05. 22:25131294 %1020
1020
1017
ONO 2 (4)>= 10000Nicht signifikant 
AWG-1 SEA
NL 27
Mi 18.05. 21:55131294 %1020
1020
1017
N 1 (2)>= 10000Nicht signifikant 
AWG-1 SEA
NL 27
Mi 18.05. 21:25131294 %1020
1020
1017
N 2 (4)>= 10000Nicht signifikant 
AWG-1 SEA
NL 27
Mi 18.05. 20:55131294 %1020
1020
1017
N 2 (4)>= 10000Nicht signifikant 
AWG-1 SEA
NL 27
Mi 18.05. 20:25131294 %1020
1020
1017
N 2 (5)>= 10000Nicht signifikant 
AWG-1 SEA
NL 27
Mi 18.05. 19:55131294 %1021
1021
1018
NW 2 (6)>= 10000Nicht signifikant 
AWG-1 SEA
NL 27
Mi 18.05. 19:25131294 %1021
1021
1018
NW 3 (8)>= 10000Nicht signifikant 
AWG-1 SEA
NL 27
Mi 18.05. 18:55141288 %1021
1021
1018
NW 3 (8)>= 10000Nicht signifikant 
AWG-1 SEA
NL 27
Mi 18.05. 18:25141288 %1021
1021
1018
NW 3 (9)>= 10000Nicht signifikant 
AWG-1 SEA
NL 27
Mi 18.05. 17:55131294 %1021
1021
1018
NW 3 (10)>= 10000Nicht signifikant 
AWG-1 SEA
NL 27
Mi 18.05. 17:25131294 %1021
1021
1018
NW 4 (12)>= 10000Nicht signifikant 
AWG-1 SEA
NL 27
Mi 18.05. 16:55131294 %1021
1021
1018
NW 4 (12)>= 10000Nicht signifikant 
AWG-1 SEA
NL 27
Mi 18.05. 16:25141288 %1021
1021
1018
NW 4 (12)>= 10000Nicht signifikant 
AWG-1 SEA
NL 27
Mi 18.05. 15:55141288 %1021
1021
1018
NW 4 (12)>= 10000Nicht signifikant 

Altimeter: Einstellung am Altimeter (Höhenmesser), die Höhe 0 muss auf diesen Luftdruckwert zeigen, damit das Gerät die Stationshöhe richtig anzeigt.

NN: Luftdruck reduziert auf "Normal Null", auf Meereshöhe, dieser von der Temperatur abhängige Wert wird bisweilen unkorrekt einfach als "Luftdruck" bezeichnet. Eigentlich nur eine fiktive Größe, die es erlaubt, Stationen auf unterschiedlichen Höhen miteinander zu vergleichen.

Station: Realer Luftdruck an der Station.